sensor_id;sensor_type;location;lat;lon;timestamp;pressure;altitude;pressure_sealevel;temperature;humidity
72909;BME280;61051;62.624;17.950;2023-12-04T00:00:38;101702.45;;;-10.91;83.62
72909;BME280;61051;62.624;17.950;2023-12-04T00:03:07;101699.19;;;-10.96;83.29
72909;BME280;61051;62.624;17.950;2023-12-04T00:05:36;101697.41;;;-10.98;83.91
72909;BME280;61051;62.624;17.950;2023-12-04T00:08:05;101689.17;;;-10.84;83.87
72909;BME280;61051;62.624;17.950;2023-12-04T00:10:34;101686.05;;;-10.56;84.30
72909;BME280;61051;62.624;17.950;2023-12-04T00:13:03;101684.71;;;-10.40;83.07
72909;BME280;61051;62.624;17.950;2023-12-04T00:15:31;101683.93;;;-10.55;81.89
72909;BME280;61051;62.624;17.950;2023-12-04T00:18:00;101682.86;;;-10.43;82.26
72909;BME280;61051;62.624;17.950;2023-12-04T00:20:29;101681.97;;;-10.59;80.22
72909;BME280;61051;62.624;17.950;2023-12-04T00:22:58;101678.45;;;-10.73;80.97
72909;BME280;61051;62.624;17.950;2023-12-04T00:25:27;101677.81;;;-10.70;82.32
72909;BME280;61051;62.624;17.950;2023-12-04T00:27:56;101677.03;;;-10.69;82.54
72909;BME280;61051;62.624;17.950;2023-12-04T00:30:25;101675.43;;;-10.67;81.78
72909;BME280;61051;62.624;17.950;2023-12-04T00:32:53;101678.68;;;-10.77;81.17
72909;BME280;61051;62.624;17.950;2023-12-04T00:35:22;101678.77;;;-10.93;81.55
72909;BME280;61051;62.624;17.950;2023-12-04T00:37:51;101677.81;;;-11.11;81.33
72909;BME280;61051;62.624;17.950;2023-12-04T00:40:20;101676.90;;;-11.23;81.90
72909;BME280;61051;62.624;17.950;2023-12-04T00:42:49;101674.19;;;-11.27;83.07
72909;BME280;61051;62.624;17.950;2023-12-04T00:45:18;101671.82;;;-11.07;83.91
72909;BME280;61051;62.624;17.950;2023-12-04T00:47:47;101671.60;;;-11.16;83.43
72909;BME280;61051;62.624;17.950;2023-12-04T00:50:16;101667.20;;;-11.23;82.47
72909;BME280;61051;62.624;17.950;2023-12-04T00:52:45;101670.10;;;-11.06;82.19
72909;BME280;61051;62.624;17.950;2023-12-04T00:55:14;101669.01;;;-11.24;80.81
72909;BME280;61051;62.624;17.950;2023-12-04T00:57:44;101670.77;;;-11.22;84.24
72909;BME280;61051;62.624;17.950;2023-12-04T01:00:15;101671.89;;;-11.41;81.76
72909;BME280;61051;62.624;17.950;2023-12-04T01:02:44;101673.73;;;-11.52;81.74
72909;BME280;61051;62.624;17.950;2023-12-04T01:05:13;101675.36;;;-11.68;82.17
72909;BME280;61051;62.624;17.950;2023-12-04T01:07:43;101676.13;;;-11.76;83.32
72909;BME280;61051;62.624;17.950;2023-12-04T01:10:13;101680.24;;;-11.79;83.78
72909;BME280;61051;62.624;17.950;2023-12-04T01:12:41;101679.74;;;-11.83;83.97
72909;BME280;61051;62.624;17.950;2023-12-04T01:15:10;101672.51;;;-11.57;85.40
72909;BME280;61051;62.624;17.950;2023-12-04T01:17:39;101670.98;;;-11.39;84.92
72909;BME280;61051;62.624;17.950;2023-12-04T01:20:09;101669.63;;;-11.56;82.84
72909;BME280;61051;62.624;17.950;2023-12-04T01:22:38;101667.40;;;-11.66;82.96
72909;BME280;61051;62.624;17.950;2023-12-04T01:25:08;101670.95;;;-11.77;82.57
72909;BME280;61051;62.624;17.950;2023-12-04T01:27:36;101667.80;;;-11.74;84.32
72909;BME280;61051;62.624;17.950;2023-12-04T01:30:06;101664.05;;;-11.74;84.11
72909;BME280;61051;62.624;17.950;2023-12-04T01:32:36;101660.11;;;-11.82;81.05
72909;BME280;61051;62.624;17.950;2023-12-04T01:35:06;101664.87;;;-12.22;79.83
72909;BME280;61051;62.624;17.950;2023-12-04T01:37:39;101664.06;;;-12.42;81.34
72909;BME280;61051;62.624;17.950;2023-12-04T01:40:09;101666.82;;;-12.46;83.42
72909;BME280;61051;62.624;17.950;2023-12-04T01:42:37;101669.28;;;-12.57;81.99
72909;BME280;61051;62.624;17.950;2023-12-04T01:45:07;101665.14;;;-12.47;84.39
72909;BME280;61051;62.624;17.950;2023-12-04T01:47:35;101664.91;;;-12.23;85.75
72909;BME280;61051;62.624;17.950;2023-12-04T01:50:05;101657.35;;;-11.90;86.47
72909;BME280;61051;62.624;17.950;2023-12-04T01:52:35;101656.58;;;-11.66;85.33
72909;BME280;61051;62.624;17.950;2023-12-04T01:55:05;101656.72;;;-11.56;84.67
72909;BME280;61051;62.624;17.950;2023-12-04T01:57:34;101658.55;;;-11.68;82.51
72909;BME280;61051;62.624;17.950;2023-12-04T02:00:04;101657.23;;;-11.57;84.32
72909;BME280;61051;62.624;17.950;2023-12-04T02:02:32;101657.88;;;-11.67;81.18
72909;BME280;61051;62.624;17.950;2023-12-04T02:05:01;101657.21;;;-11.96;80.78
72909;BME280;61051;62.624;17.950;2023-12-04T02:07:30;101659.25;;;-12.27;80.76
72909;BME280;61051;62.624;17.950;2023-12-04T02:09:59;101659.34;;;-12.30;82.45
72909;BME280;61051;62.624;17.950;2023-12-04T02:12:28;101662.06;;;-12.25;83.81
72909;BME280;61051;62.624;17.950;2023-12-04T02:14:57;101658.64;;;-12.03;86.28
72909;BME280;61051;62.624;17.950;2023-12-04T02:17:26;101657.39;;;-11.85;85.13
72909;BME280;61051;62.624;17.950;2023-12-04T02:19:56;101652.69;;;-11.48;85.16
72909;BME280;61051;62.624;17.950;2023-12-04T02:22:25;101652.74;;;-11.52;82.28
72909;BME280;61051;62.624;17.950;2023-12-04T02:24:54;101650.15;;;-11.71;81.21
72909;BME280;61051;62.624;17.950;2023-12-04T02:27:27;101654.42;;;-11.86;81.65
72909;BME280;61051;62.624;17.950;2023-12-04T02:29:59;101657.17;;;-12.03;81.69
72909;BME280;61051;62.624;17.950;2023-12-04T02:32:29;101655.03;;;-12.05;83.23
72909;BME280;61051;62.624;17.950;2023-12-04T02:34:59;101654.28;;;-11.93;83.40
72909;BME280;61051;62.624;17.950;2023-12-04T02:37:32;101651.93;;;-11.94;83.94
72909;BME280;61051;62.624;17.950;2023-12-04T02:40:02;101648.15;;;-11.98;83.25
72909;BME280;61051;62.624;17.950;2023-12-04T02:42:30;101647.52;;;-11.96;83.27
72909;BME280;61051;62.624;17.950;2023-12-04T02:44:59;101645.30;;;-12.08;82.54
72909;BME280;61051;62.624;17.950;2023-12-04T02:47:28;101642.47;;;-12.21;83.03
72909;BME280;61051;62.624;17.950;2023-12-04T02:49:57;101645.38;;;-12.28;79.69
72909;BME280;61051;62.624;17.950;2023-12-04T02:52:26;101650.02;;;-12.69;77.08
72909;BME280;61051;62.624;17.950;2023-12-04T02:54:55;101648.82;;;-13.29;75.92
72909;BME280;61051;62.624;17.950;2023-12-04T02:57:24;101649.59;;;-13.52;78.62
72909;BME280;61051;62.624;17.950;2023-12-04T02:59:53;101650.85;;;-13.70;80.72
72909;BME280;61051;62.624;17.950;2023-12-04T03:02:22;101652.58;;;-13.76;80.56
72909;BME280;61051;62.624;17.950;2023-12-04T03:04:51;101656.51;;;-13.69;82.21
72909;BME280;61051;62.624;17.950;2023-12-04T03:07:20;101655.03;;;-13.90;81.98
72909;BME280;61051;62.624;17.950;2023-12-04T03:09:49;101652.61;;;-13.84;83.17
72909;BME280;61051;62.624;17.950;2023-12-04T03:12:18;101648.42;;;-13.86;83.62
72909;BME280;61051;62.624;17.950;2023-12-04T03:14:47;101645.04;;;-13.94;82.52
72909;BME280;61051;62.624;17.950;2023-12-04T03:17:16;101644.97;;;-13.92;85.39
72909;BME280;61051;62.624;17.950;2023-12-04T03:19:45;101642.74;;;-13.65;85.99
72909;BME280;61051;62.624;17.950;2023-12-04T03:22:15;101645.88;;;-13.60;84.34
72909;BME280;61051;62.624;17.950;2023-12-04T03:24:45;101645.97;;;-13.70;82.12
72909;BME280;61051;62.624;17.950;2023-12-04T03:27:15;101648.55;;;-13.78;82.67
72909;BME280;61051;62.624;17.950;2023-12-04T03:29:44;101650.41;;;-13.80;83.61
72909;BME280;61051;62.624;17.950;2023-12-04T03:32:15;101649.95;;;-13.79;82.72
72909;BME280;61051;62.624;17.950;2023-12-04T03:34:44;101655.76;;;-13.69;84.33
72909;BME280;61051;62.624;17.950;2023-12-04T03:37:14;101653.42;;;-13.74;85.30
72909;BME280;61051;62.624;17.950;2023-12-04T03:39:44;101650.55;;;-13.60;85.48
72909;BME280;61051;62.624;17.950;2023-12-04T03:42:14;101651.80;;;-13.42;84.99
72909;BME280;61051;62.624;17.950;2023-12-04T03:44:42;101653.80;;;-13.68;83.06
72909;BME280;61051;62.624;17.950;2023-12-04T03:47:11;101652.92;;;-13.60;82.41
72909;BME280;61051;62.624;17.950;2023-12-04T03:49:40;101648.80;;;-13.58;82.17
72909;BME280;61051;62.624;17.950;2023-12-04T03:52:09;101650.19;;;-13.63;83.02
72909;BME280;61051;62.624;17.950;2023-12-04T03:54:38;101653.10;;;-13.43;83.25
72909;BME280;61051;62.624;17.950;2023-12-04T03:57:07;101649.23;;;-13.61;81.47
72909;BME280;61051;62.624;17.950;2023-12-04T03:59:36;101648.72;;;-13.89;80.88
72909;BME280;61051;62.624;17.950;2023-12-04T04:02:05;101649.91;;;-14.03;80.43
72909;BME280;61051;62.624;17.950;2023-12-04T04:04:34;101651.96;;;-14.07;82.12
72909;BME280;61051;62.624;17.950;2023-12-04T04:07:03;101651.74;;;-13.98;83.28
72909;BME280;61051;62.624;17.950;2023-12-04T04:09:32;101656.38;;;-13.89;83.50
72909;BME280;61051;62.624;17.950;2023-12-04T04:12:01;101653.20;;;-13.99;84.08
72909;BME280;61051;62.624;17.950;2023-12-04T04:14:30;101649.46;;;-13.95;85.37
72909;BME280;61051;62.624;17.950;2023-12-04T04:16:58;101650.87;;;-13.86;86.08
72909;BME280;61051;62.624;17.950;2023-12-04T04:19:27;101650.45;;;-13.74;86.81
72909;BME280;61051;62.624;17.950;2023-12-04T04:21:56;101648.84;;;-13.58;86.79
72909;BME280;61051;62.624;17.950;2023-12-04T04:24:25;101653.04;;;-13.54;86.59
72909;BME280;61051;62.624;17.950;2023-12-04T04:26:54;101653.06;;;-13.44;86.47
72909;BME280;61051;62.624;17.950;2023-12-04T04:29:23;101653.58;;;-13.40;86.01
72909;BME280;61051;62.624;17.950;2023-12-04T04:31:52;101652.61;;;-13.52;85.37
72909;BME280;61051;62.624;17.950;2023-12-04T04:34:21;101647.27;;;-13.53;85.55
72909;BME280;61051;62.624;17.950;2023-12-04T04:36:50;101646.19;;;-13.39;86.39
72909;BME280;61051;62.624;17.950;2023-12-04T04:39:19;101647.29;;;-13.31;86.52
72909;BME280;61051;62.624;17.950;2023-12-04T04:41:48;101647.40;;;-13.21;86.10
72909;BME280;61051;62.624;17.950;2023-12-04T04:44:17;101645.82;;;-13.29;84.49
72909;BME280;61051;62.624;17.950;2023-12-04T04:46:46;101642.91;;;-13.40;83.54
72909;BME280;61051;62.624;17.950;2023-12-04T04:49:15;101642.98;;;-13.40;82.66
72909;BME280;61051;62.624;17.950;2023-12-04T04:51:44;101640.98;;;-13.51;82.65
72909;BME280;61051;62.624;17.950;2023-12-04T04:54:14;101642.53;;;-13.57;82.14
72909;BME280;61051;62.624;17.950;2023-12-04T04:56:42;101638.35;;;-13.61;83.11
72909;BME280;61051;62.624;17.950;2023-12-04T04:59:11;101639.37;;;-13.62;83.58
72909;BME280;61051;62.624;17.950;2023-12-04T05:03:17;101637.27;;;-13.72;84.09
72909;BME280;61051;62.624;17.950;2023-12-04T05:05:46;101635.28;;;-13.58;83.27
72909;BME280;61051;62.624;17.950;2023-12-04T05:08:14;101633.44;;;-13.60;83.89
72909;BME280;61051;62.624;17.950;2023-12-04T05:10:43;101629.24;;;-13.52;84.29
72909;BME280;61051;62.624;17.950;2023-12-04T05:13:12;101631.18;;;-13.51;83.90
72909;BME280;61051;62.624;17.950;2023-12-04T05:15:41;101632.90;;;-13.45;84.77
72909;BME280;61051;62.624;17.950;2023-12-04T05:18:10;101635.29;;;-13.61;83.95
72909;BME280;61051;62.624;17.950;2023-12-04T05:20:39;101631.15;;;-13.53;83.93
72909;BME280;61051;62.624;17.950;2023-12-04T05:23:08;101628.79;;;-13.47;84.10
72909;BME280;61051;62.624;17.950;2023-12-04T05:25:37;101632.54;;;-13.41;85.23
72909;BME280;61051;62.624;17.950;2023-12-04T05:28:06;101633.84;;;-13.37;84.47
72909;BME280;61051;62.624;17.950;2023-12-04T05:30:35;101631.30;;;-13.29;84.41
72909;BME280;61051;62.624;17.950;2023-12-04T05:33:04;101628.87;;;-13.28;84.76
72909;BME280;61051;62.624;17.950;2023-12-04T05:35:33;101630.56;;;-13.18;86.09
72909;BME280;61051;62.624;17.950;2023-12-04T05:38:02;101625.46;;;-12.96;85.97
72909;BME280;61051;62.624;17.950;2023-12-04T05:40:31;101628.04;;;-13.12;84.03
72909;BME280;61051;62.624;17.950;2023-12-04T05:43:00;101627.53;;;-13.15;82.81
72909;BME280;61051;62.624;17.950;2023-12-04T05:45:29;101625.79;;;-13.24;83.18
72909;BME280;61051;62.624;17.950;2023-12-04T05:47:58;101626.93;;;-13.28;83.91
72909;BME280;61051;62.624;17.950;2023-12-04T05:50:27;101629.78;;;-13.19;84.03
72909;BME280;61051;62.624;17.950;2023-12-04T05:52:55;101625.56;;;-13.35;84.10
72909;BME280;61051;62.624;17.950;2023-12-04T05:55:24;101623.75;;;-13.26;84.28
72909;BME280;61051;62.624;17.950;2023-12-04T05:57:54;101621.96;;;-13.18;84.84
72909;BME280;61051;62.624;17.950;2023-12-04T06:00:22;101622.47;;;-13.13;85.02
72909;BME280;61051;62.624;17.950;2023-12-04T06:02:52;101625.31;;;-13.00;85.62
72909;BME280;61051;62.624;17.950;2023-12-04T06:05:22;101622.17;;;-13.07;85.14
72909;BME280;61051;62.624;17.950;2023-12-04T06:07:52;101624.31;;;-12.97;84.58
72909;BME280;61051;62.624;17.950;2023-12-04T06:10:20;101622.44;;;-13.12;85.00
72909;BME280;61051;62.624;17.950;2023-12-04T06:12:48;101619.65;;;-13.06;84.93
72909;BME280;61051;62.624;17.950;2023-12-04T06:15:17;101615.56;;;-12.92;84.60
72909;BME280;61051;62.624;17.950;2023-12-04T06:17:45;101615.57;;;-13.09;83.78
72909;BME280;61051;62.624;17.950;2023-12-04T06:20:15;101616.32;;;-13.21;83.19
72909;BME280;61051;62.624;17.950;2023-12-04T06:22:44;101615.23;;;-13.20;83.76
72909;BME280;61051;62.624;17.950;2023-12-04T06:25:14;101613.82;;;-13.25;84.63
72909;BME280;61051;62.624;17.950;2023-12-04T06:27:44;101615.92;;;-13.14;85.27
72909;BME280;61051;62.624;17.950;2023-12-04T06:30:14;101618.45;;;-13.00;85.13
72909;BME280;61051;62.624;17.950;2023-12-04T06:32:43;101616.08;;;-13.12;84.22
72909;BME280;61051;62.624;17.950;2023-12-04T06:35:12;101613.09;;;-13.12;84.55
72909;BME280;61051;62.624;17.950;2023-12-04T06:37:41;101615.39;;;-13.03;84.42
72909;BME280;61051;62.624;17.950;2023-12-04T06:40:12;101613.80;;;-13.12;84.99
72909;BME280;61051;62.624;17.950;2023-12-04T06:42:41;101616.61;;;-13.15;84.59
72909;BME280;61051;62.624;17.950;2023-12-04T06:45:10;101614.54;;;-13.23;85.07
72909;BME280;61051;62.624;17.950;2023-12-04T06:47:40;101616.54;;;-13.35;85.04
72909;BME280;61051;62.624;17.950;2023-12-04T06:50:11;101617.66;;;-13.19;85.36
72909;BME280;61051;62.624;17.950;2023-12-04T06:52:40;101614.64;;;-13.20;84.00
72909;BME280;61051;62.624;17.950;2023-12-04T06:55:09;101618.21;;;-13.37;83.29
72909;BME280;61051;62.624;17.950;2023-12-04T06:57:38;101619.61;;;-13.35;84.38
72909;BME280;61051;62.624;17.950;2023-12-04T07:00:07;101619.80;;;-13.29;85.25
72909;BME280;61051;62.624;17.950;2023-12-04T07:02:35;101623.12;;;-13.19;85.95
72909;BME280;61051;62.624;17.950;2023-12-04T07:05:04;101624.35;;;-13.22;85.30
72909;BME280;61051;62.624;17.950;2023-12-04T07:07:34;101620.43;;;-13.10;85.18
72909;BME280;61051;62.624;17.950;2023-12-04T07:10:03;101620.06;;;-13.47;81.31
72909;BME280;61051;62.624;17.950;2023-12-04T07:12:31;101619.68;;;-13.56;82.98
72909;BME280;61051;62.624;17.950;2023-12-04T07:15:00;101618.65;;;-13.49;83.47
72909;BME280;61051;62.624;17.950;2023-12-04T07:17:29;101611.44;;;-13.32;85.82
72909;BME280;61051;62.624;17.950;2023-12-04T07:19:58;101611.48;;;-13.32;85.69
72909;BME280;61051;62.624;17.950;2023-12-04T07:22:27;101612.88;;;-13.27;85.42
72909;BME280;61051;62.624;17.950;2023-12-04T07:24:55;101610.76;;;-13.24;85.08
72909;BME280;61051;62.624;17.950;2023-12-04T07:27:23;101609.90;;;-13.28;84.66
72909;BME280;61051;62.624;17.950;2023-12-04T07:29:59;101609.22;;;-13.35;84.83
72909;BME280;61051;62.624;17.950;2023-12-04T07:32:28;101609.53;;;-13.14;85.93
72909;BME280;61051;62.624;17.950;2023-12-04T07:34:57;101614.08;;;-13.21;85.03
72909;BME280;61051;62.624;17.950;2023-12-04T07:37:26;101615.24;;;-13.06;84.39
72909;BME280;61051;62.624;17.950;2023-12-04T07:39:55;101613.15;;;-13.11;84.71
72909;BME280;61051;62.624;17.950;2023-12-04T07:42:23;101610.87;;;-13.03;85.26
72909;BME280;61051;62.624;17.950;2023-12-04T07:44:51;101613.35;;;-12.88;84.58
72909;BME280;61051;62.624;17.950;2023-12-04T07:47:19;101615.62;;;-13.14;82.69
72909;BME280;61051;62.624;17.950;2023-12-04T07:49:47;101615.19;;;-13.34;83.22
72909;BME280;61051;62.624;17.950;2023-12-04T07:52:16;101617.70;;;-13.30;83.44
72909;BME280;61051;62.624;17.950;2023-12-04T07:54:45;101613.63;;;-13.29;82.75
72909;BME280;61051;62.624;17.950;2023-12-04T07:57:14;101615.40;;;-13.27;83.77
72909;BME280;61051;62.624;17.950;2023-12-04T07:59:43;101616.46;;;-13.59;82.86
72909;BME280;61051;62.624;17.950;2023-12-04T08:02:11;101618.98;;;-13.42;83.71
72909;BME280;61051;62.624;17.950;2023-12-04T08:04:39;101617.13;;;-13.30;84.12
72909;BME280;61051;62.624;17.950;2023-12-04T08:07:13;101617.21;;;-13.23;85.02
72909;BME280;61051;62.624;17.950;2023-12-04T08:09:42;101615.26;;;-13.02;85.25
72909;BME280;61051;62.624;17.950;2023-12-04T08:12:11;101613.93;;;-12.95;85.04
72909;BME280;61051;62.624;17.950;2023-12-04T08:14:40;101617.64;;;-12.87;84.51
72909;BME280;61051;62.624;17.950;2023-12-04T08:17:09;101613.00;;;-12.98;84.33
72909;BME280;61051;62.624;17.950;2023-12-04T08:19:38;101616.26;;;-12.92;84.19
72909;BME280;61051;62.624;17.950;2023-12-04T08:22:07;101614.09;;;-12.76;84.49
72909;BME280;61051;62.624;17.950;2023-12-04T08:24:36;101612.81;;;-12.74;83.69
72909;BME280;61051;62.624;17.950;2023-12-04T08:27:05;101615.66;;;-12.71;83.89
72909;BME280;61051;62.624;17.950;2023-12-04T08:29:34;101615.77;;;-12.66;83.08
72909;BME280;61051;62.624;17.950;2023-12-04T08:32:03;101620.06;;;-12.45;84.61
72909;BME280;61051;62.624;17.950;2023-12-04T08:34:31;101619.37;;;-12.39;84.03
72909;BME280;61051;62.624;17.950;2023-12-04T08:36:59;101616.72;;;-12.11;84.15
72909;BME280;61051;62.624;17.950;2023-12-04T08:39:28;101617.71;;;-12.09;84.44
72909;BME280;61051;62.624;17.950;2023-12-04T08:41:57;101618.18;;;-11.92;84.16
72909;BME280;61051;62.624;17.950;2023-12-04T08:44:25;101617.97;;;-11.77;83.63
72909;BME280;61051;62.624;17.950;2023-12-04T08:46:54;101619.35;;;-11.69;83.71
72909;BME280;61051;62.624;17.950;2023-12-04T08:49:23;101620.09;;;-11.65;83.74
72909;BME280;61051;62.624;17.950;2023-12-04T08:51:53;101620.00;;;-11.66;82.58
72909;BME280;61051;62.624;17.950;2023-12-04T08:54:23;101619.12;;;-11.51;83.05
72909;BME280;61051;62.624;17.950;2023-12-04T08:56:52;101617.81;;;-11.45;83.23
72909;BME280;61051;62.624;17.950;2023-12-04T08:59:20;101616.85;;;-11.36;83.61
72909;BME280;61051;62.624;17.950;2023-12-04T09:01:49;101617.42;;;-11.35;83.81
72909;BME280;61051;62.624;17.950;2023-12-04T09:04:18;101615.97;;;-11.23;83.83
72909;BME280;61051;62.624;17.950;2023-12-04T09:06:47;101616.22;;;-11.17;82.27
72909;BME280;61051;62.624;17.950;2023-12-04T09:09:16;101617.83;;;-11.13;82.35
72909;BME280;61051;62.624;17.950;2023-12-04T09:11:45;101616.98;;;-11.12;82.64
72909;BME280;61051;62.624;17.950;2023-12-04T09:14:13;101613.79;;;-11.06;82.62
72909;BME280;61051;62.624;17.950;2023-12-04T09:16:42;101616.62;;;-11.00;81.68
72909;BME280;61051;62.624;17.950;2023-12-04T09:19:10;101619.92;;;-11.10;81.84
72909;BME280;61051;62.624;17.950;2023-12-04T09:21:38;101623.41;;;-10.88;81.80
72909;BME280;61051;62.624;17.950;2023-12-04T09:24:07;101617.65;;;-11.03;81.96
72909;BME280;61051;62.624;17.950;2023-12-04T09:26:34;101615.24;;;-11.05;82.71
72909;BME280;61051;62.624;17.950;2023-12-04T09:29:03;101612.76;;;-10.86;82.77
72909;BME280;61051;62.624;17.950;2023-12-04T09:31:32;101614.40;;;-10.76;82.46
72909;BME280;61051;62.624;17.950;2023-12-04T09:34:01;101606.65;;;-10.70;82.90
72909;BME280;61051;62.624;17.950;2023-12-04T09:36:30;101606.86;;;-10.74;82.39
72909;BME280;61051;62.624;17.950;2023-12-04T09:38:59;101606.51;;;-10.75;82.66
72909;BME280;61051;62.624;17.950;2023-12-04T09:41:28;101607.32;;;-10.58;82.55
72909;BME280;61051;62.624;17.950;2023-12-04T09:43:57;101603.65;;;-10.34;81.89
72909;BME280;61051;62.624;17.950;2023-12-04T09:46:26;101602.75;;;-10.38;81.41
72909;BME280;61051;62.624;17.950;2023-12-04T09:48:55;101600.84;;;-10.26;81.22
72909;BME280;61051;62.624;17.950;2023-12-04T09:51:27;101599.70;;;-10.16;80.60
72909;BME280;61051;62.624;17.950;2023-12-04T09:53:57;101601.06;;;-10.15;80.75
72909;BME280;61051;62.624;17.950;2023-12-04T09:56:28;101599.50;;;-10.12;80.22
72909;BME280;61051;62.624;17.950;2023-12-04T09:58:59;101596.54;;;-9.96;80.36
72909;BME280;61051;62.624;17.950;2023-12-04T10:01:29;101598.73;;;-9.89;79.44
72909;BME280;61051;62.624;17.950;2023-12-04T10:03:58;101595.74;;;-9.53;78.86
72909;BME280;61051;62.624;17.950;2023-12-04T10:06:28;101599.80;;;-9.59;77.66
72909;BME280;61051;62.624;17.950;2023-12-04T10:08:57;101597.90;;;-9.47;77.92
72909;BME280;61051;62.624;17.950;2023-12-04T10:11:26;101594.43;;;-9.67;77.90
72909;BME280;61051;62.624;17.950;2023-12-04T10:13:55;101594.38;;;-9.63;78.43
72909;BME280;61051;62.624;17.950;2023-12-04T10:16:32;101588.70;;;-9.91;78.31
72909;BME280;61051;62.624;17.950;2023-12-04T10:19:14;101588.12;;;-9.99;79.46
72909;BME280;61051;62.624;17.950;2023-12-04T10:21:43;101590.79;;;-9.86;78.89
72909;BME280;61051;62.624;17.950;2023-12-04T10:24:12;101585.68;;;-9.90;78.31
72909;BME280;61051;62.624;17.950;2023-12-04T10:26:50;101584.09;;;-9.91;78.80
72909;BME280;61051;62.624;17.950;2023-12-04T10:29:19;101580.05;;;-9.85;78.96
72909;BME280;61051;62.624;17.950;2023-12-04T10:31:48;101577.60;;;-9.95;79.22
72909;BME280;61051;62.624;17.950;2023-12-04T10:34:18;101578.85;;;-9.77;79.44
72909;BME280;61051;62.624;17.950;2023-12-04T10:36:47;101578.25;;;-9.73;79.46
72909;BME280;61051;62.624;17.950;2023-12-04T10:39:16;101580.41;;;-9.71;78.91
72909;BME280;61051;62.624;17.950;2023-12-04T10:41:59;101581.35;;;-9.69;79.45
72909;BME280;61051;62.624;17.950;2023-12-04T10:44:30;101581.79;;;-9.63;79.04
72909;BME280;61051;62.624;17.950;2023-12-04T10:46:59;101582.17;;;-9.63;79.50
72909;BME280;61051;62.624;17.950;2023-12-04T10:49:28;101582.72;;;-9.47;78.54
72909;BME280;61051;62.624;17.950;2023-12-04T10:51:57;101580.19;;;-9.43;78.37
72909;BME280;61051;62.624;17.950;2023-12-04T10:54:26;101574.26;;;-9.23;79.03
72909;BME280;61051;62.624;17.950;2023-12-04T10:56:58;101575.19;;;-9.25;77.83
72909;BME280;61051;62.624;17.950;2023-12-04T10:59:35;101574.60;;;-9.01;78.26
72909;BME280;61051;62.624;17.950;2023-12-04T11:03:21;101574.80;;;-9.15;77.90
72909;BME280;61051;62.624;17.950;2023-12-04T11:05:55;101573.29;;;-9.01;77.39
72909;BME280;61051;62.624;17.950;2023-12-04T11:08:25;101576.36;;;-9.02;77.18
72909;BME280;61051;62.624;17.950;2023-12-04T11:11:01;101574.94;;;-9.09;77.85
72909;BME280;61051;62.624;17.950;2023-12-04T11:13:32;101572.39;;;-9.10;78.01
72909;BME280;61051;62.624;17.950;2023-12-04T11:18:51;101569.97;;;-9.05;78.33
72909;BME280;61051;62.624;17.950;2023-12-04T11:21:24;101568.51;;;-9.03;78.79
72909;BME280;61051;62.624;17.950;2023-12-04T11:23:52;101567.19;;;-8.99;79.02
72909;BME280;61051;62.624;17.950;2023-12-04T11:26:22;101566.52;;;-9.01;79.42
72909;BME280;61051;62.624;17.950;2023-12-04T11:28:51;101567.38;;;-8.95;79.15
72909;BME280;61051;62.624;17.950;2023-12-04T11:31:19;101570.32;;;-8.74;78.31
72909;BME280;61051;62.624;17.950;2023-12-04T11:33:48;101567.43;;;-8.49;78.12
72909;BME280;61051;62.624;17.950;2023-12-04T11:36:17;101560.46;;;-8.46;77.20
72909;BME280;61051;62.624;17.950;2023-12-04T11:38:47;101561.31;;;-8.38;76.59
72909;BME280;61051;62.624;17.950;2023-12-04T11:41:17;101558.28;;;-8.39;76.51
72909;BME280;61051;62.624;17.950;2023-12-04T11:43:47;101560.67;;;-8.50;77.24
72909;BME280;61051;62.624;17.950;2023-12-04T11:46:19;101556.17;;;-8.66;77.70
72909;BME280;61051;62.624;17.950;2023-12-04T11:48:48;101557.67;;;-8.66;78.06
72909;BME280;61051;62.624;17.950;2023-12-04T11:51:45;101554.87;;;-8.72;78.11
72909;BME280;61051;62.624;17.950;2023-12-04T11:54:15;101557.36;;;-8.86;79.24
72909;BME280;61051;62.624;17.950;2023-12-04T11:56:57;101549.62;;;-8.78;79.62
72909;BME280;61051;62.624;17.950;2023-12-04T11:59:26;101547.00;;;-8.66;79.43
72909;BME280;61051;62.624;17.950;2023-12-04T12:01:56;101541.53;;;-8.71;79.47
72909;BME280;61051;62.624;17.950;2023-12-04T12:04:26;101538.68;;;-8.47;79.78
72909;BME280;61051;62.624;17.950;2023-12-04T12:06:56;101542.24;;;-8.49;79.04
72909;BME280;61051;62.624;17.950;2023-12-04T12:09:27;101542.61;;;-8.31;78.37
72909;BME280;61051;62.624;17.950;2023-12-04T12:11:55;101542.13;;;-8.33;78.60
72909;BME280;61051;62.624;17.950;2023-12-04T12:14:24;101535.83;;;-8.26;78.15
72909;BME280;61051;62.624;17.950;2023-12-04T12:16:54;101538.07;;;-8.08;77.38
72909;BME280;61051;62.624;17.950;2023-12-04T12:19:23;101540.96;;;-7.99;77.81
72909;BME280;61051;62.624;17.950;2023-12-04T12:21:51;101535.88;;;-7.97;77.00
72909;BME280;61051;62.624;17.950;2023-12-04T12:24:20;101533.42;;;-7.77;77.13
72909;BME280;61051;62.624;17.950;2023-12-04T12:26:48;101527.57;;;-7.76;76.70
72909;BME280;61051;62.624;17.950;2023-12-04T12:29:17;101527.53;;;-7.78;76.47
72909;BME280;61051;62.624;17.950;2023-12-04T12:31:46;101530.86;;;-7.82;77.21
72909;BME280;61051;62.624;17.950;2023-12-04T12:34:15;101531.64;;;-7.92;77.32
72909;BME280;61051;62.624;17.950;2023-12-04T12:36:44;101528.50;;;-8.00;77.22
72909;BME280;61051;62.624;17.950;2023-12-04T12:39:13;101528.96;;;-7.96;77.33
72909;BME280;61051;62.624;17.950;2023-12-04T12:41:47;101529.39;;;-7.92;77.64
72909;BME280;61051;62.624;17.950;2023-12-04T12:44:15;101528.35;;;-7.74;76.96
72909;BME280;61051;62.624;17.950;2023-12-04T12:46:47;101527.03;;;-7.89;77.41
72909;BME280;61051;62.624;17.950;2023-12-04T12:49:17;101528.35;;;-8.19;77.50